Logo AVAMET
Benvolgut visitant, si us plau, ingressa Recuperar contrasenya
AVAMET paisatges

Almoradí centre

Dades diàries. Acumulats / Últims 30 dies disponibles

Data Temperatura (°C) Humitat rel. (%) Pressió rel. (hPa) Vent (km/h) Precipitació
Mínima Mitjana Màxima Amplitud
tèrmica
Mínima Mitjana Màxima Mínima Mitjana Màxima Predom. Mitjana Ràfega
màxima
Total
(mm)
Índex-n
Mínima Mitjana Màxima Mínima Mitjana Màxima n
0 a 1
P0 max
mm 5'
Dades mensuals acumulades fins l'últim dia disponible
03/2020 14,0 14,3 14,5 19,2 23,1 24,5 25,8 11,8 24 48 70 1.005 1.013 1.019   9,8 59,5 0,0
Dades anuals acumulades fins l'últim dia disponible
2020 3,2 8,6 14,5 13,1 11,1 19,3 27,5 24,3 18 73 97 1.005 1.026 1.037   5,1 59,5 39,4
Últims 30 dies disponibles
02-03-2020 14,5     19,5     25,8 11,3 24 43 60 1.005 1.010 1.019 SO 14,6 59,5 0,0
01-03-2020 14,0     18,8     23,1 9,1 37 53 70 1.014 1.016 1.018 O 5,0 32,2 0,0
29-02-2020 9,3     16,6     25,2 15,9 25 59 87 1.013 1.016 1.020 O 5,5 22,5 0,0
28-02-2020 13,3     17,2     24,3 11,0 28 50 78 1.020 1.022 1.024 SO 5,9 27,4 0,0
27-02-2020 10,9     17,2     24,7 13,8 29 46 67 1.019 1.022 1.023 O 6,0 30,6 0,0
26-02-2020 14,3     18,6     23,7 9,4 23 45 79 1.018 1.020 1.022 S 7,7 32,2 0,0
25-02-2020 10,6     18,1     27,1 16,5 18 45 85 1.016 1.019 1.023 O 8,9 33,8 0,0
24-02-2020 5,8     12,8     21,6 15,8 38 72 90 1.023 1.028 1.033 OSO 6,2 25,7 0,0
23-02-2020 4,9     12,2     21,8 16,9 24 75 94 1.032 1.035 1.037 OSO 4,2 22,5 0,0
22-02-2020 6,1     11,8     19,4 13,3 44 79 91 1.032 1.033 1.036 SO 4,2 22,5 0,0
21-02-2020 6,2     11,4     17,0 10,8 62 82 93 1.029 1.031 1.033 SO 3,5 19,3 0,0
20-02-2020 8,0     12,2     17,3 9,3 61 83 96 1.026 1.028 1.031 SSO 4,2 22,5 0,0
19-02-2020 10,7     14,0     17,1 6,4 65 83 91 1.031 1.032 1.034 ESE 2,6 19,3 0,0
18-02-2020 13,1     13,9     16,1 3,0 81 90 93 1.029 1.031 1.033 E 4,7 20,9 0,6
17-02-2020 9,3     15,7     26,0 16,7 35 77 97 1.024 1.027 1.028 O 4,2 19,3 0,2
16-02-2020 7,6     12,8     20,4 12,8 67 88 97 1.027 1.029 1.030 OSO 3,3 24,1 0,2
15-02-2020 7,8     13,0     20,1 12,3 58 83 93 1.026 1.028 1.030 SSO 3,5 24,1 0,0
14-02-2020 11,9     15,2     21,7 9,8 49 73 93 1.025 1.026 1.028 SSO 4,7 19,3 0,0
13-02-2020 11,1     15,7     22,2 11,1 50 75 92 1.023 1.024 1.026 OSO 4,1 22,5 0,0
12-02-2020 11,6     14,5     19,8 8,2 56 85 96 1.024 1.025 1.026 SSE 3,3 25,7 0,0
11-02-2020 13,6     17,3     25,4 11,8 44 70 89 1.022 1.025 1.028 SO 6,3 25,7 0,0
10-02-2020 9,1     15,1     23,6 14,5 40 70 93 1.028 1.031 1.034 ONO 7,5 25,7 0,0
09-02-2020 10,7     14,1     18,7 8,0 65 79 93 1.028 1.031 1.034 SSO 3,8 25,7 0,0
08-02-2020 7,1     13,0     20,6 13,5 46 77 92 1.025 1.026 1.029 ONO 4,7 20,9 0,0
07-02-2020 7,4     11,2     16,7 9,3 59 80 91 1.025 1.026 1.027 O 4,0 19,3 0,0
06-02-2020 6,8     11,4     15,7 8,9 58 81 94 1.026 1.028 1.030 SSE 2,4 20,9 0,0
05-02-2020 11,5     13,9     16,1 4,6 68 77 88 1.028 1.030 1.032 SE 3,6 22,5 0,0
04-02-2020 12,2     18,6     27,5 15,3 28 57 84 1.023 1.026 1.029 OSO 7,9 27,4 0,0
03-02-2020 12,8     16,6     25,3 12,5 38 72 88 1.028 1.030 1.031 OSO 5,9 20,9 0,0
02-02-2020 13,9     17,3     23,5 9,6 51 70 84 1.028 1.029 1.031 O 6,7 27,4 0,0
Últims 13 mesos disponibles
02/2020 4,9 10,0 14,3 14,8 15,7 21,5 27,5 22,6 45 72 90 1.016 1.027 1.035 O 5,0 33,8 1,0
01/2020 3,2 7,0 13,9 11,2 11,1 17,0 22,9 19,7 60 76 89 1.015 1.027 1.034 ONO 4,9 53,1 38,4
12/2019 5,4 9,8 14,9 13,6 13,3 18,7 25,6 20,2 52 73 88 1.007 1.021 1.034 SO 5,2 48,3 33,2
11/2019 10,8 14,1 19,4 18,3 18,1 23,6 28,9 18,1 46 58 74 1.008 1.015 1.021 O 6,5 53,1 0,0
10/2019 10,7 15,9 21,9 20,4 16,1 26,2 34,9 24,2 45 71 90 1.010 1.018 1.024 OSO 4,3 33,8 20,0
09/2019 16,1 20,4 23,6 24,0 21,5 28,6 33,7 17,6 52 76 94 1.011 1.018 1.023 SSO 4,7 46,7 104,0
08/2019 19,4 22,5 25,2 26,9 29,2 32,3 39,4 20,0 52 71 81 1.011 1.017 1.021 SSO 4,8 41,8 51,6
07/2019 20,7 22,6 25,4 27,4 29,6 32,8 37,4 16,7 39 64 77 1.008 1.015 1.021 SSE 5,4 38,6 0,0
06/2019 13,8 18,3 22,5 23,7 23,8 28,9 35,5 21,7 39 62 75 1.010 1.016 1.023 S 5,6 41,8 0,4
05/2019 12,1 15,1 19,8 19,8 20,3 25,1 31,8 19,7 46 66 78 1.007 1.016 1.026 SE 5,5 43,5 1,4
04/2019 8,2 11,8 15,3 16,0 15,2 21,6 29,8 21,6 47 67 90 1.001 1.014 1.026 SO 5,6 61,2 100,2
03/2019 5,3 9,0 13,3 14,3 14,1 20,8 29,3 24,0 41 63 89 1.012 1.024 1.031 SO 4,8 41,8 21,0
02/2019 4,6 7,1 11,8 12,4 14,4 19,3 26,8 22,2 34 65 82 998 1.026 1.034 OSO 5,4 57,9 0,4
Tots els anys disponibles
2019 4,6 14,9 25,4 19,5 13,3 25,0 39,4 34,8 34 67 94 998 1.018 1.034 SO 5,3 61,2
Temperatura (°C)
Humitat relativa (%)
Velocitat del vent i ràfega màxima (km/h)
Direcció del vent (°)
Pressió (hPa)
Precipitació (mm)
Nota sobre les dades: s'avisa a l'usuari de la provisionalitat i no oficialitat d'aquestes dades
Logo AVAMET blanc
Web allotjada a Sollutia
Llicència de Creative CommonsLa web d'AVAMET i els seus continguts estan subjectes a una llicència de
Reconeixement - No Comercial - Compartir igual
Últimes estacions:  Chera (Ajuntament soci), Benifaió (Inforatge), Altea - Com. Regants (Soci) - - -